Time,TemperatureF,DewpointF,PressureIn,WindDirection,WindDirectionDegrees,WindSpeedMPH,WindSpeedGustMPH,Humidity,HourlyPrecipIn,Conditions,Clouds,dailyrainin,SoftwareType,DateUTC
2013-08-01 00:01:00,78.0,72.8,29.52,NE,41,1.0,2.0,84,0.00,,,0.00,Wunderground v.1.15,2013-08-01 05:01:00,
2013-08-01 00:10:00,77.5,73.0,29.52,NE,43,1.0,2.0,86,0.00,,,0.00,Wunderground v.1.15,2013-08-01 05:10:00,
2013-08-01 00:20:00,77.1,72.6,29.52,NE,41,0.0,2.0,86,0.00,,,0.00,Wunderground v.1.15,2013-08-01 05:20:00,
2013-08-01 00:30:00,77.0,72.8,29.52,NE,41,0.0,2.0,87,0.00,,,0.00,Wunderground v.1.15,2013-08-01 05:30:00,
2013-08-01 00:40:00,76.9,72.4,29.53,NE,42,0.0,2.0,86,0.00,,,0.00,Wunderground v.1.15,2013-08-01 05:40:00,
2013-08-01 00:45:00,77.0,72.5,29.53,NE,43,0.0,2.0,86,0.00,,,0.00,Wunderground v.1.15,2013-08-01 05:45:00,
2013-08-01 00:55:00,76.5,72.7,29.53,NE,43,0.0,2.0,88,0.00,,,0.00,Wunderground v.1.15,2013-08-01 05:55:00,
2013-08-01 01:00:00,76.4,72.6,29.52,NE,42,0.0,2.0,88,0.00,,,0.00,Wunderground v.1.15,2013-08-01 06:00:00,
2013-08-01 01:10:00,76.3,72.5,29.53,NE,43,0.0,2.0,88,0.00,,,0.00,Wunderground v.1.15,2013-08-01 06:10:00,
2013-08-01 01:20:00,76.3,72.5,29.53,NE,42,0.0,2.0,88,0.00,,,0.00,Wunderground v.1.15,2013-08-01 06:20:00,
2013-08-01 01:30:00,76.1,72.3,29.53,NNE,22,0.0,2.0,88,0.00,,,0.00,Wunderground v.1.15,2013-08-01 06:30:00,
2013-08-01 01:35:00,75.9,72.1,29.53,NNE,20,0.0,2.0,88,0.00,,,0.00,Wunderground v.1.15,2013-08-01 06:35:00,
2013-08-01 01:45:00,75.8,72.0,29.52,NNE,20,0.0,2.0,88,0.00,,,0.00,Wunderground v.1.15,2013-08-01 06:45:00,
2013-08-01 01:55:00,75.6,72.1,29.52,NNE,31,0.0,2.0,89,0.00,,,0.00,Wunderground v.1.15,2013-08-01 06:55:00,
2013-08-01 02:00:00,75.6,72.1,29.52,NE,36,1.0,2.0,89,0.00,,,0.00,Wunderground v.1.15,2013-08-01 07:00:00,
2013-08-01 02:10:00,75.5,72.0,29.52,North,9,1.0,1.0,89,0.00,,,0.00,Wunderground v.1.15,2013-08-01 07:10:00,
2013-08-01 02:20:00,75.2,71.7,29.52,NNE,23,0.0,2.0,89,0.00,,,0.00,Wunderground v.1.15,2013-08-01 07:20:00,
2013-08-01 02:30:00,75.0,71.5,29.53,North,8,1.0,2.0,89,0.00,,,0.00,Wunderground v.1.15,2013-08-01 07:30:00,
2013-08-01 02:40:00,75.0,71.5,29.53,NNE,23,2.0,2.0,89,0.00,,,0.00,Wunderground v.1.15,2013-08-01 07:40:00,
2013-08-01 02:45:00,74.9,71.4,29.53,North,4,2.0,2.0,89,0.00,,,0.00,Wunderground v.1.15,2013-08-01 07:45:00,
2013-08-01 03:05:00,74.9,71.1,29.53,NE,44,2.0,2.0,88,0.00,,,0.00,Wunderground v.1.15,2013-08-01 08:05:00,
2013-08-01 03:15:00,73.7,70.3,29.53,NNE,32,2.0,2.0,89,0.00,,,0.00,Wunderground v.1.15,2013-08-01 08:15:00,
2013-08-01 03:20:00,73.7,70.3,29.53,NNE,32,1.0,2.0,89,0.00,,,0.00,Wunderground v.1.15,2013-08-01 08:20:00,
2013-08-01 03:25:00,-999.9,-99.9,29.53,North,32767,-999.0,2.0,255,-99.99,,,0.00,Wunderground v.1.15,2013-08-01 08:25:00,
2013-08-01 03:40:00,-999.9,-99.9,29.53,North,32767,-999.0,2.0,255,-99.99,,,0.00,Wunderground v.1.15,2013-08-01 08:40:00,
2013-08-01 03:50:00,-999.9,-99.9,29.53,North,32767,-999.0,2.0,255,-99.99,,,0.00,Wunderground v.1.15,2013-08-01 08:50:00,
2013-08-01 03:55:00,-999.9,-99.9,29.53,North,32767,-999.0,2.0,255,-99.99,,,0.00,Wunderground v.1.15,2013-08-01 08:55:00,
2013-08-01 04:05:00,-999.9,-99.9,29.53,North,32767,-999.0,2.0,255,-99.99,,,0.00,Wunderground v.1.15,2013-08-01 09:05:00,
2013-08-01 04:10:00,-999.9,-99.9,29.53,North,32767,-999.0,2.0,255,-99.99,,,0.00,Wunderground v.1.15,2013-08-01 09:10:00,
2013-08-01 04:20:00,-999.9,-99.9,29.53,North,32767,-999.0,2.0,255,-99.99,,,0.00,Wunderground v.1.15,2013-08-01 09:20:00,
2013-08-01 04:30:00,-999.9,-99.9,29.53,North,32767,-999.0,2.0,255,-99.99,,,0.00,Wunderground v.1.15,2013-08-01 09:30:00,
2013-08-01 04:40:00,-999.9,-99.9,29.53,North,32767,-999.0,2.0,255,-99.99,,,0.00,Wunderground v.1.15,2013-08-01 09:40:00,
2013-08-01 04:45:00,-999.9,-99.9,29.53,North,32767,-999.0,2.0,255,-99.99,,,0.00,Wunderground v.1.15,2013-08-01 09:45:00,
2013-08-01 04:55:00,-999.9,-99.9,29.53,North,32767,-999.0,2.0,255,-99.99,,,0.00,Wunderground v.1.15,2013-08-01 09:55:00,
2013-08-01 05:05:00,-999.9,-99.9,29.54,North,32767,-999.0,2.0,255,-99.99,,,0.00,Wunderground v.1.15,2013-08-01 10:05:00,
2013-08-01 05:30:00,-999.9,-99.9,29.54,North,32767,-999.0,2.0,255,-99.99,,,0.00,Wunderground v.1.15,2013-08-01 10:30:00,
2013-08-01 05:40:00,-999.9,-99.9,29.54,North,32767,-999.0,2.0,255,-99.99,,,0.00,Wunderground v.1.15,2013-08-01 10:40:00,
2013-08-01 05:55:00,-999.9,-99.9,29.54,North,32767,-999.0,2.0,255,-99.99,,,0.00,Wunderground v.1.15,2013-08-01 10:55:00,
2013-08-01 06:01:00,-999.9,-99.9,29.54,North,32767,-999.0,2.0,255,-99.99,,,0.00,Wunderground v.1.15,2013-08-01 11:01:00,
2013-08-01 06:10:00,-999.9,-99.9,29.54,North,32767,-999.0,2.0,255,-99.99,,,0.00,Wunderground v.1.15,2013-08-01 11:10:00,
2013-08-01 06:15:00,-999.9,-99.9,29.54,North,32767,-999.0,2.0,255,-99.99,,,0.00,Wunderground v.1.15,2013-08-01 11:15:00,
2013-08-01 06:25:00,-999.9,-99.9,29.54,North,32767,-999.0,2.0,255,-99.99,,,0.00,Wunderground v.1.15,2013-08-01 11:25:00,
2013-08-01 06:35:00,-999.9,-99.9,29.54,North,32767,-999.0,2.0,255,-99.99,,,0.00,Wunderground v.1.15,2013-08-01 11:35:00,
2013-08-01 06:45:00,-999.9,-99.9,29.55,North,32767,-999.0,2.0,255,-99.99,,,0.00,Wunderground v.1.15,2013-08-01 11:45:00,
2013-08-01 07:20:00,-999.9,-99.9,29.56,North,32767,-999.0,2.0,255,-99.99,,,0.00,Wunderground v.1.15,2013-08-01 12:20:00,
2013-08-01 07:35:00,72.8,70.3,29.55,ENE,75,1.0,1.0,92,0.00,,,0.00,Wunderground v.1.15,2013-08-01 12:35:00,
2013-08-01 07:45:00,74.2,70.7,29.56,ENE,76,0.0,2.0,89,0.00,,,0.00,Wunderground v.1.15,2013-08-01 12:45:00,
2013-08-01 07:50:00,74.4,70.6,29.56,ENE,75,0.0,2.0,88,0.00,,,0.00,Wunderground v.1.15,2013-08-01 12:50:00,
2013-08-01 08:00:00,75.3,71.2,29.57,ENE,75,0.0,2.0,87,0.00,,,0.00,Wunderground v.1.15,2013-08-01 13:00:00,
2013-08-01 08:10:00,75.2,71.1,29.56,ENE,60,2.0,3.0,87,0.00,,,0.00,Wunderground v.1.15,2013-08-01 13:10:00,
2013-08-01 08:20:00,75.3,71.2,29.56,ENE,68,3.0,4.0,87,0.00,,,0.00,Wunderground v.1.15,2013-08-01 13:20:00,
2013-08-01 08:30:00,75.8,71.0,29.57,ENE,60,4.0,4.0,85,0.00,,,0.00,Wunderground v.1.15,2013-08-01 13:30:00,
2013-08-01 08:40:00,76.5,71.7,29.57,ENE,60,3.0,4.0,85,0.00,,,0.00,Wunderground v.1.15,2013-08-01 13:40:00,
2013-08-01 08:50:00,76.7,71.5,29.57,ENE,78,5.0,8.0,84,0.00,,,0.00,Wunderground v.1.15,2013-08-01 13:50:00,
2013-08-01 08:55:00,76.7,71.1,29.57,East,85,6.0,8.0,83,0.00,,,0.00,Wunderground v.1.15,2013-08-01 13:55:00,
2013-08-01 09:15:00,77.8,71.5,29.57,East,79,5.0,6.0,81,0.00,,,0.00,Wunderground v.1.15,2013-08-01 14:15:00,
2013-08-01 09:25:00,78.6,71.9,29.56,ESE,102,5.0,5.0,80,0.00,,,0.00,Wunderground v.1.15,2013-08-01 14:25:00,
2013-08-01 09:40:00,79.6,71.8,29.57,ESE,103,5.0,6.0,77,0.00,,,0.00,Wunderground v.1.15,2013-08-01 14:40:00,
2013-08-01 09:50:00,79.9,71.3,29.57,ENE,73,5.0,6.0,75,0.00,,,0.00,Wunderground v.1.15,2013-08-01 14:50:00,
2013-08-01 10:00:00,80.3,72.4,29.57,ENE,76,5.0,5.0,77,0.00,,,0.00,Wunderground v.1.15,2013-08-01 15:00:00,
2013-08-01 10:10:00,80.8,71.3,29.57,ENE,72,5.0,9.0,73,0.00,,,0.00,Wunderground v.1.15,2013-08-01 15:10:00,
2013-08-01 10:25:00,81.8,71.5,29.57,ENE,78,5.0,6.0,71,0.00,,,0.00,Wunderground v.1.15,2013-08-01 15:25:00,
2013-08-01 10:35:00,82.1,71.3,29.57,NE,51,6.0,6.0,70,0.00,,,0.00,Wunderground v.1.15,2013-08-01 15:35:00,
2013-08-01 10:40:00,82.0,70.8,29.57,East,79,6.0,6.0,69,0.00,,,0.00,Wunderground v.1.15,2013-08-01 15:40:00,
2013-08-01 10:55:00,82.5,70.9,29.57,ENE,65,7.0,7.0,68,0.00,,,0.00,Wunderground v.1.15,2013-08-01 15:55:00,
2013-08-01 11:01:00,82.1,70.5,29.56,East,81,9.0,10.0,68,0.00,,,0.00,Wunderground v.1.15,2013-08-01 16:01:00,
2013-08-01 11:10:00,82.3,70.2,29.57,ENE,70,9.0,10.0,67,0.00,,,0.00,Wunderground v.1.15,2013-08-01 16:10:00,
2013-08-01 11:25:00,83.0,70.9,29.57,East,83,7.0,7.0,67,0.00,,,0.00,Wunderground v.1.15,2013-08-01 16:25:00,
2013-08-01 11:40:00,83.7,71.6,29.57,ENE,69,5.0,7.0,67,0.00,,,0.00,Wunderground v.1.15,2013-08-01 16:40:00,
2013-08-01 11:45:00,83.8,70.8,29.56,SE,143,5.0,5.0,65,0.00,,,0.00,Wunderground v.1.15,2013-08-01 16:45:00,
2013-08-01 11:55:00,83.8,70.8,29.56,ENE,73,5.0,8.0,65,0.00,,,0.00,Wunderground v.1.15,2013-08-01 16:55:00,
2013-08-01 12:05:00,84.3,70.8,29.56,ENE,68,4.0,7.0,64,0.00,,,0.00,Wunderground v.1.15,2013-08-01 17:05:00,
2013-08-01 12:15:00,84.2,71.2,29.56,ESE,113,6.0,6.0,65,0.00,,,0.00,Wunderground v.1.15,2013-08-01 17:15:00,
2013-08-01 12:35:00,85.3,69.3,29.56,ESE,107,4.0,4.0,59,0.00,,,0.00,Wunderground v.1.15,2013-08-01 17:35:00,
2013-08-01 12:40:00,86.4,70.4,29.55,WNW,284,2.0,2.0,59,0.00,,,0.00,Wunderground v.1.15,2013-08-01 17:40:00,
2013-08-01 12:50:00,85.9,70.9,29.55,NNW,348,3.0,3.0,61,0.00,,,0.00,Wunderground v.1.15,2013-08-01 17:50:00,
2013-08-01 13:01:00,86.4,70.9,29.55,ENE,74,4.0,7.0,60,0.00,,,0.00,Wunderground v.1.15,2013-08-01 18:01:00,
2013-08-01 13:10:00,86.2,70.2,29.55,East,96,5.0,7.0,59,0.00,,,0.00,Wunderground v.1.15,2013-08-01 18:10:00,
2013-08-01 13:25:00,86.0,69.0,29.54,ENE,57,5.0,5.0,57,0.00,,,0.00,Wunderground v.1.15,2013-08-01 18:25:00,
2013-08-01 13:35:00,86.8,71.2,29.53,East,93,4.0,4.0,60,0.00,,,0.00,Wunderground v.1.15,2013-08-01 18:35:00,
2013-08-01 13:45:00,86.3,69.3,29.53,ESE,116,6.0,6.0,57,0.00,,,0.00,Wunderground v.1.15,2013-08-01 18:45:00,
2013-08-01 14:10:00,87.5,69.3,29.52,SE,142,3.0,4.0,55,0.00,,,0.00,Wunderground v.1.15,2013-08-01 19:10:00,
2013-08-01 14:25:00,87.9,69.7,29.52,NE,51,5.0,6.0,55,0.00,,,0.00,Wunderground v.1.15,2013-08-01 19:25:00,
2013-08-01 14:40:00,88.4,69.6,29.52,North,6,2.0,2.0,54,0.00,,,0.00,Wunderground v.1.15,2013-08-01 19:40:00,
2013-08-01 14:50:00,88.7,67.1,29.52,ENE,67,4.0,4.0,49,0.00,,,0.00,Wunderground v.1.15,2013-08-01 19:50:00,
2013-08-01 15:05:00,88.7,68.2,29.51,ENE,71,5.0,6.0,51,0.00,,,0.00,Wunderground v.1.15,2013-08-01 20:05:00,
2013-08-01 15:20:00,89.0,67.9,29.51,East,89,5.0,5.0,50,0.00,,,0.00,Wunderground v.1.15,2013-08-01 20:20:00,
2013-08-01 15:25:00,89.1,68.6,29.51,ESE,105,5.0,5.0,51,0.00,,,0.00,Wunderground v.1.15,2013-08-01 20:25:00,
2013-08-01 15:40:00,89.6,68.5,29.50,ESE,107,4.0,4.0,50,0.00,,,0.00,Wunderground v.1.15,2013-08-01 20:40:00,
2013-08-01 15:50:00,89.6,64.8,29.50,ENE,74,5.0,8.0,44,0.00,,,0.00,Wunderground v.1.15,2013-08-01 20:50:00,
2013-08-01 15:55:00,89.5,64.7,29.50,ESE,107,6.0,6.0,44,0.00,,,0.00,Wunderground v.1.15,2013-08-01 20:55:00,
2013-08-01 16:00:00,89.6,66.1,29.50,SE,129,5.0,5.0,46,0.00,,,0.00,Wunderground v.1.15,2013-08-01 21:00:00,
2013-08-01 16:10:00,89.9,66.3,29.49,ENE,69,4.0,6.0,46,0.00,,,0.00,Wunderground v.1.15,2013-08-01 21:10:00,
2013-08-01 16:25:00,90.2,66.6,29.49,ESE,110,4.0,5.0,46,0.00,,,0.00,Wunderground v.1.15,2013-08-01 21:25:00,
2013-08-01 16:35:00,89.9,66.3,29.48,East,83,5.0,8.0,46,0.00,,,0.00,Wunderground v.1.15,2013-08-01 21:35:00,
2013-08-01 16:40:00,89.9,67.0,29.48,ESE,112,6.0,6.0,47,0.00,,,0.00,Wunderground v.1.15,2013-08-01 21:40:00,
2013-08-01 16:50:00,89.9,67.0,29.47,ENE,60,5.0,6.0,47,0.00,,,0.00,Wunderground v.1.15,2013-08-01 21:50:00,
2013-08-01 17:10:00,89.9,68.2,29.46,ENE,73,5.0,8.0,49,0.00,,,0.00,Wunderground v.1.15,2013-08-01 22:10:00,
2013-08-01 17:20:00,90.0,67.7,29.46,East,91,5.0,5.0,48,0.00,,,0.00,Wunderground v.1.15,2013-08-01 22:20:00,
2013-08-01 17:30:00,90.4,66.8,29.46,SSE,161,3.0,4.0,46,0.00,,,0.00,Wunderground v.1.15,2013-08-01 22:30:00,
2013-08-01 17:40:00,90.5,66.3,29.45,ESE,121,4.0,7.0,45,0.00,,,0.00,Wunderground v.1.15,2013-08-01 22:40:00,
2013-08-01 17:55:00,90.1,65.2,29.45,SE,125,4.0,4.0,44,0.00,,,0.00,Wunderground v.1.15,2013-08-01 22:55:00,
2013-08-01 18:05:00,90.5,66.9,29.45,SE,129,3.0,3.0,46,0.00,,,0.00,Wunderground v.1.15,2013-08-01 23:05:00,
2013-08-01 18:20:00,90.4,68.0,29.45,SE,131,3.0,3.0,48,0.00,,,0.00,Wunderground v.1.15,2013-08-01 23:20:00,
2013-08-01 18:35:00,90.0,69.4,29.44,East,82,3.0,3.0,51,0.00,,,0.00,Wunderground v.1.15,2013-08-01 23:35:00,
2013-08-01 18:55:00,89.8,71.5,29.44,East,93,2.0,2.0,55,0.00,,,0.00,Wunderground v.1.15,2013-08-01 23:55:00,
2013-08-01 19:00:00,89.6,71.8,29.44,East,87,2.0,2.0,56,0.00,,,0.00,Wunderground v.1.15,2013-08-02 00:00:00,
2013-08-01 19:20:00,88.8,71.6,29.44,ESE,103,2.0,3.0,57,0.00,,,0.00,Wunderground v.1.15,2013-08-02 00:20:00,
2013-08-01 19:30:00,88.4,72.2,29.43,ESE,117,2.0,2.0,59,0.00,,,0.00,Wunderground v.1.15,2013-08-02 00:30:00,
2013-08-01 19:45:00,88.2,73.0,29.43,SE,126,1.0,2.0,61,0.00,,,0.00,Wunderground v.1.15,2013-08-02 00:45:00,
2013-08-01 19:55:00,87.5,73.8,29.43,SE,126,1.0,2.0,64,0.00,,,0.00,Wunderground v.1.15,2013-08-02 00:55:00,
2013-08-01 20:01:00,87.1,73.4,29.43,SE,127,1.0,1.0,64,0.00,,,0.00,Wunderground v.1.15,2013-08-02 01:01:00,
2013-08-01 20:10:00,86.6,73.4,29.43,SE,127,1.0,2.0,65,0.00,,,0.00,Wunderground v.1.15,2013-08-02 01:10:00,
2013-08-01 20:20:00,86.4,73.2,29.43,SE,145,0.0,2.0,65,0.00,,,0.00,Wunderground v.1.15,2013-08-02 01:20:00,
2013-08-01 20:25:00,86.1,73.0,29.43,SSE,155,0.0,2.0,65,0.00,,,0.00,Wunderground v.1.15,2013-08-02 01:25:00,
2013-08-01 20:35:00,84.7,74.3,29.44,SE,141,0.0,2.0,71,0.00,,,0.00,Wunderground v.1.15,2013-08-02 01:35:00,
2013-08-01 20:45:00,83.9,73.9,29.44,SE,141,0.0,2.0,72,0.00,,,0.00,Wunderground v.1.15,2013-08-02 01:45:00,
2013-08-01 21:00:00,82.7,74.4,29.44,SE,130,0.0,2.0,76,0.00,,,0.00,Wunderground v.1.15,2013-08-02 02:00:00,
2013-08-01 21:10:00,81.9,74.4,29.44,SE,130,0.0,0.0,78,0.00,,,0.00,Wunderground v.1.15,2013-08-02 02:10:00,
2013-08-01 21:20:00,81.4,73.5,29.44,ESE,107,0.0,0.0,77,0.00,,,0.00,Wunderground v.1.15,2013-08-02 02:20:00,
2013-08-01 21:30:00,81.3,73.4,29.44,ESE,117,0.0,0.0,77,0.00,,,0.00,Wunderground v.1.15,2013-08-02 02:30:00,
2013-08-01 21:40:00,81.0,71.5,29.44,SE,131,1.0,2.0,73,0.00,,,0.00,Wunderground v.1.15,2013-08-02 02:40:00,
2013-08-01 21:45:00,81.2,72.1,29.44,East,96,1.0,2.0,74,0.00,,,0.00,Wunderground v.1.15,2013-08-02 02:45:00,
2013-08-01 21:55:00,80.3,72.4,29.44,ESE,105,1.0,1.0,77,0.00,,,0.00,Wunderground v.1.15,2013-08-02 02:55:00,
2013-08-01 22:05:00,79.3,72.2,29.44,ESE,105,0.0,1.0,79,0.00,,,0.00,Wunderground v.1.15,2013-08-02 03:05:00,
2013-08-01 22:15:00,79.4,71.6,29.43,ESE,106,0.0,1.0,77,0.00,,,0.00,Wunderground v.1.15,2013-08-02 03:15:00,
2013-08-01 22:25:00,79.6,71.8,29.44,ESE,105,0.0,1.0,77,0.00,,,0.00,Wunderground v.1.15,2013-08-02 03:25:00,
2013-08-01 22:35:00,79.3,71.5,29.44,ESE,105,0.0,1.0,77,0.00,,,0.00,Wunderground v.1.15,2013-08-02 03:35:00,
2013-08-01 22:45:00,79.4,71.2,29.44,ESE,105,0.0,1.0,76,0.00,,,0.00,Wunderground v.1.15,2013-08-02 03:45:00,
2013-08-01 22:55:00,79.8,71.6,29.43,SSE,149,0.0,1.0,76,0.00,,,0.00,Wunderground v.1.15,2013-08-02 03:55:00,
2013-08-01 23:05:00,80.1,71.1,29.43,SSE,148,1.0,2.0,74,0.00,,,0.00,Wunderground v.1.15,2013-08-02 04:05:00,
2013-08-01 23:10:00,80.1,71.1,29.43,SE,145,2.0,2.0,74,0.00,,,0.00,Wunderground v.1.15,2013-08-02 04:10:00,
2013-08-01 23:15:00,79.9,71.3,29.43,SE,145,2.0,2.0,75,0.00,,,0.00,Wunderground v.1.15,2013-08-02 04:15:00,
2013-08-01 23:19:00,79.7,71.1,29.43,SE,145,2.0,2.0,75,0.00,,,0.00,Wunderground v.1.15,2013-08-02 04:19:00,
2013-08-01 23:25:00,79.4,71.2,29.43,SSE,147,2.0,2.0,76,0.00,,,0.00,Wunderground v.1.15,2013-08-02 04:25:00,
2013-08-01 23:35:00,79.3,71.5,29.42,ESE,112,2.0,3.0,77,0.00,,,0.00,Wunderground v.1.15,2013-08-02 04:35:00,
2013-08-01 23:45:00,78.6,71.5,29.42,SE,145,2.0,2.0,79,0.00,,,0.00,Wunderground v.1.15,2013-08-02 04:45:00,
2013-08-01 23:50:00,78.4,71.3,29.42,SE,141,1.0,2.0,79,0.00,,,0.00,Wunderground v.1.15,2013-08-02 04:50:00,